Ceredo, West Virginia
Current Conditions -  °F | °C
As of 3:51 PM on Friday 28 Nov 2014 (Local Time) from KHTS Reporting Station
Clear Clear  
Wind Chill: 29°   Ceiling: Unl
Heat Index: 35°   Visibility: 10mi
Dew Point: 18°   Wind: 8mph
Humidity: 50%   Direction: 220°SW
Pressure: 30.27"   Gusts: NA
Location:  38.4°N, 82.56°W
Report Text: KHTS 282051Z 22007KT 10SM CLR 02/M08 A3027 RMK AO2 SLP256 60002 T00171078 56024
Loading
Personal Weather Stations






























Interactive Weather Map New forecast layout! Learn more

10-Day Weather Forecast

Advertisements
Track Severe Weather on mobile